Time;durP1;ratioP1;P1;durP2;ratioP2;P2;SDS_P1;SDS_P2;PMS_P1;PMS_P2;Temp;Humidity;BMP_temperature;BMP_pressure;BME280_temperature;BME280_humidity;BME280_pressure;Samples;Min_cycle;Max_cycle;Signal;HPM_P1;HPM_P2
2023/02/18 00:02:21;;;;;;;;;;;11.00;99.90;;;;;;5087462;28;19928;-67
2023/02/18 00:04:47;;;;;;;;;;;11.00;99.90;;;;;;5083272;28;19970;-67
2023/02/18 00:07:14;;;;;;;;;;;11.00;99.90;;;;;;5084315;28;19985;-67
2023/02/18 00:09:40;;;;;;;;;;;10.90;99.90;;;;;;5088054;28;20136;-67
2023/02/18 00:12:07;;;;;;;;;;;10.90;99.90;;;;;;5090481;28;20597;-67
2023/02/18 00:14:35;;;;;;;;;;;10.90;99.90;;;;;;5089534;28;19924;-67
2023/02/18 00:17:01;;;;;;;;;;;11.00;99.90;;;;;;5082546;28;20449;-66
2023/02/18 00:19:28;;;;;;;;;;;11.00;99.90;;;;;;5086918;28;19931;-64
2023/02/18 00:21:54;;;;;;;;;;;10.90;99.90;;;;;;5082912;28;19924;-64
2023/02/18 00:24:21;;;;;;;;;;;10.90;99.90;;;;;;5084691;28;19932;-65
2023/02/18 00:26:49;;;;;;;;;;;11.00;99.90;;;;;;5081619;28;20354;-65
2023/02/18 00:29:16;;;;;;;;;;;10.90;99.90;;;;;;5087381;28;19928;-67
2023/02/18 00:31:44;;;;;;;;;;;11.00;99.90;;;;;;5084980;28;19977;-64
2023/02/18 00:34:10;;;;;;;;;;;11.00;99.90;;;;;;5079503;28;20357;-67
2023/02/18 00:36:37;;;;;;;;;;;10.90;99.90;;;;;;5084694;28;19970;-67
2023/02/18 00:39:05;;;;;;;;;;;10.80;99.90;;;;;;5082876;28;20337;-66
2023/02/18 00:41:32;;;;;;;;;;;10.90;99.90;;;;;;5087097;28;19969;-66
2023/02/18 00:43:59;;;;;;;;;;;10.90;99.90;;;;;;5086540;28;19924;-67
2023/02/18 00:46:26;;;;;;;;;;;10.90;99.90;;;;;;5084738;28;19931;-65
2023/02/18 00:48:54;;;;;;;;;;;10.80;99.90;;;;;;5082170;28;19925;-65
2023/02/18 00:51:21;;;;;;;;;;;10.80;99.90;;;;;;5087481;28;19973;-65
2023/02/18 00:53:48;;;;;;;;;;;10.80;99.90;;;;;;5091811;28;19924;-65
2023/02/18 00:56:14;;;;;;;;;;;10.80;99.90;;;;;;5084423;28;19928;-65
2023/02/18 00:58:41;;;;;;;;;;;10.80;99.90;;;;;;5083681;28;19928;-65
2023/02/18 01:01:09;;;;;;;;;;;10.80;99.90;;;;;;5083218;28;19928;-65
2023/02/18 01:03:36;;;;;;;;;;;10.70;99.90;;;;;;5085150;28;19924;-65
2023/02/18 01:06:04;;;;;;;;;;;10.70;99.90;;;;;;5083810;28;19924;-64
2023/02/18 01:08:31;;;;;;;;;;;10.70;99.90;;;;;;5085709;28;20001;-65
2023/02/18 01:10:58;;;;;;;;;;;10.60;99.90;;;;;;5083705;28;19924;-65
2023/02/18 01:13:25;;;;;;;;;;;10.70;99.90;;;;;;5086106;28;19924;-65
2023/02/18 01:15:51;;;;;;;;;;;10.60;99.90;;;;;;5079032;28;19924;-64
2023/02/18 01:18:19;;;;;;;;;;;10.60;99.90;;;;;;5085608;28;19924;-64
2023/02/18 01:20:45;;;;;;;;;;;10.60;99.90;;;;;;5082179;28;20337;-64
2023/02/18 01:23:14;;;;;;;;;;;10.60;99.90;;;;;;5085768;28;19929;-65
2023/02/18 01:25:41;;;;;;;;;;;10.60;99.90;;;;;;5082074;28;19928;-65
2023/02/18 01:28:07;;;;;;;;;;;10.60;99.90;;;;;;5082095;28;19966;-65
2023/02/18 01:30:34;;;;;;;;;;;10.60;99.90;;;;;;5084985;28;19928;-65
2023/02/18 01:33:00;;;;;;;;;;;10.60;99.90;;;;;;5084789;28;19928;-65
2023/02/18 01:35:27;;;;;;;;;;;10.60;99.90;;;;;;5086502;28;20283;-65
2023/02/18 01:37:54;;;;;;;;;;;10.60;99.90;;;;;;5084533;28;19924;-65
2023/02/18 01:40:23;;;;;;;;;;;10.50;99.90;;;;;;5086813;28;19970;-65
2023/02/18 01:42:50;;;;;;;;;;;10.50;99.90;;;;;;5088241;28;19928;-64
2023/02/18 01:45:36;;;;;;;;;;;10.50;99.90;;;;;;5083726;28;20419;-64
2023/02/18 01:48:05;;;;;;;;;;;10.60;99.90;;;;;;5081365;28;20005;-64
2023/02/18 01:50:33;;;;;;;;;;;10.60;99.90;;;;;;5081181;28;19960;-64
2023/02/18 01:53:00;;;;;;;;;;;10.50;99.90;;;;;;5081110;28;20466;-64
2023/02/18 01:55:28;;;;;;;;;;;10.40;99.90;;;;;;5084669;28;20666;-65
2023/02/18 01:57:54;;;;;;;;;;;10.50;99.90;;;;;;5080362;28;20290;-64
2023/02/18 02:00:21;;;;;;;;;;;10.60;99.90;;;;;;5085003;28;19984;-64
2023/02/18 02:02:48;;;;;;;;;;;10.60;99.90;;;;;;5081636;28;19932;-64
2023/02/18 02:05:15;;;;;;;;;;;10.60;99.90;;;;;;5082362;28;20495;-64
2023/02/18 02:07:43;;;;;;;;;;;10.60;99.90;;;;;;5082312;28;19965;-66
2023/02/18 02:10:10;;;;;;;;;;;10.60;99.90;;;;;;5084081;28;19924;-67
2023/02/18 02:12:43;;;;;;;;;;;10.60;99.90;;;;;;5090225;28;20464;-66
2023/02/18 02:15:22;;;;;;;;;;;10.60;99.90;;;;;;5084988;28;19978;-66
2023/02/18 02:17:54;;;;;;;;;;;10.70;99.90;;;;;;5081325;28;20349;-66
2023/02/18 02:20:38;;;;;;;;;;;10.60;99.90;;;;;;5078088;28;19932;-66
2023/02/18 02:23:29;;;;;;;;;;;10.60;99.90;;;;;;5077809;28;20345;-64
2023/02/18 02:26:11;;;;;;;;;;;10.50;99.90;;;;;;5084721;28;19924;-65
2023/02/18 02:28:55;;;;;;;;;;;10.60;99.90;;;;;;5083617;28;19925;-65
2023/02/18 02:31:34;;;;;;;;;;;10.60;99.90;;;;;;5083490;28;19993;-64
2023/02/18 02:34:15;;;;;;;;;;;10.70;99.90;;;;;;5072857;28;19948;-65
2023/02/18 02:36:45;;;;;;;;;;;10.60;99.90;;;;;;5077716;28;19923;-66
2023/02/18 02:39:15;;;;;;;;;;;10.70;99.90;;;;;;5081383;28;19929;-67
2023/02/18 02:41:44;;;;;;;;;;;10.70;99.90;;;;;;5090229;28;19981;-67
2023/02/18 02:44:17;;;;;;;;;;;10.70;99.90;;;;;;5086998;28;20370;-66
2023/02/18 02:46:45;;;;;;;;;;;10.70;99.90;;;;;;5083314;28;19924;-66
2023/02/18 02:49:15;;;;;;;;;;;10.70;99.90;;;;;;5080253;28;19925;-66
2023/02/18 02:51:46;;;;;;;;;;;10.70;99.90;;;;;;5088193;28;19935;-67
2023/02/18 02:54:15;;;;;;;;;;;10.70;99.90;;;;;;5080717;28;20441;-65
2023/02/18 02:56:42;;;;;;;;;;;10.60;99.90;;;;;;5081414;28;20448;-65
2023/02/18 02:59:10;;;;;;;;;;;10.70;99.90;;;;;;5080258;28;19925;-64
2023/02/18 03:01:45;;;;;;;;;;;10.70;99.90;;;;;;5085204;28;19928;-65
2023/02/18 03:04:32;;;;;;;;;;;10.70;99.90;;;;;;5083529;28;19928;-65
2023/02/18 03:07:07;;;;;;;;;;;10.70;99.90;;;;;;5078801;28;19925;-67
2023/02/18 03:09:41;;;;;;;;;;;10.70;99.90;;;;;;5087828;28;20436;-65
2023/02/18 03:12:11;;;;;;;;;;;10.60;99.90;;;;;;5092181;28;19924;-64
2023/02/18 03:14:43;;;;;;;;;;;10.60;99.90;;;;;;5084971;28;20415;-65
2023/02/18 03:17:12;;;;;;;;;;;10.60;99.90;;;;;;5076495;28;19977;-64
2023/02/18 03:19:40;;;;;;;;;;;10.60;99.90;;;;;;5085077;28;20337;-65
2023/02/18 03:22:08;;;;;;;;;;;10.60;99.90;;;;;;5088312;28;19977;-65
2023/02/18 03:24:37;;;;;;;;;;;10.60;99.90;;;;;;5084613;28;19933;-64
2023/02/18 03:27:06;;;;;;;;;;;10.50;99.90;;;;;;5087810;28;19931;-64
2023/02/18 03:29:33;;;;;;;;;;;10.40;99.90;;;;;;5085733;28;19928;-64
2023/02/18 03:32:02;;;;;;;;;;;10.40;99.90;;;;;;5083985;28;20449;-65
2023/02/18 03:34:31;;;;;;;;;;;10.40;99.90;;;;;;5088048;28;19924;-64
2023/02/18 03:36:57;;;;;;;;;;;10.40;99.90;;;;;;5084060;28;19928;-65
2023/02/18 03:39:27;;;;;;;;;;;10.30;99.90;;;;;;5083494;28;19931;-65
2023/02/18 03:41:54;;;;;;;;;;;10.30;99.90;;;;;;5086995;28;19924;-65
2023/02/18 03:44:21;;;;;;;;;;;10.30;99.90;;;;;;5084530;28;19950;-65
2023/02/18 03:46:47;;;;;;;;;;;10.20;99.90;;;;;;5085856;28;19924;-65
2023/02/18 03:49:15;;;;;;;;;;;10.30;99.90;;;;;;5086067;28;19935;-65
2023/02/18 03:51:42;;;;;;;;;;;10.20;99.90;;;;;;5083301;28;19924;-65
2023/02/18 03:54:08;;;;;;;;;;;10.30;99.90;;;;;;5088053;28;19928;-65
2023/02/18 03:56:35;;;;;;;;;;;10.30;99.90;;;;;;5084270;28;20452;-65
2023/02/18 03:59:03;;;;;;;;;;;10.30;99.90;;;;;;5078337;28;19947;-65
2023/02/18 04:01:30;;;;;;;;;;;10.20;99.90;;;;;;5091840;28;19924;-64
2023/02/18 04:03:56;;;;;;;;;;;10.20;99.90;;;;;;5084148;28;19924;-65
2023/02/18 04:06:23;;;;;;;;;;;10.20;99.90;;;;;;5087405;28;19928;-65
2023/02/18 04:08:50;;;;;;;;;;;10.30;99.90;;;;;;5083443;28;20391;-64
2023/02/18 04:11:16;;;;;;;;;;;10.30;99.90;;;;;;5086993;28;19954;-64
2023/02/18 04:13:43;;;;;;;;;;;10.30;99.90;;;;;;5091513;28;19970;-65
2023/02/18 04:16:11;;;;;;;;;;;10.30;99.90;;;;;;5084303;28;20572;-64
2023/02/18 04:18:37;;;;;;;;;;;10.30;99.90;;;;;;5086589;28;19993;-64
2023/02/18 04:21:04;;;;;;;;;;;10.30;99.90;;;;;;5083221;28;19924;-64
2023/02/18 04:23:31;;;;;;;;;;;10.30;99.90;;;;;;5084176;28;19970;-64
2023/02/18 04:25:57;;;;;;;;;;;10.40;99.90;;;;;;5080693;28;19929;-64
2023/02/18 04:28:24;;;;;;;;;;;10.30;99.90;;;;;;5086036;28;19981;-66
2023/02/18 04:30:50;;;;;;;;;;;10.30;99.90;;;;;;5087015;28;19929;-64
2023/02/18 04:33:18;;;;;;;;;;;10.30;99.90;;;;;;5083444;28;19924;-64
2023/02/18 04:35:45;;;;;;;;;;;10.30;99.90;;;;;;5084731;28;19925;-64
2023/02/18 04:38:12;;;;;;;;;;;10.20;99.90;;;;;;5084896;28;19973;-64
2023/02/18 04:40:39;;;;;;;;;;;10.30;99.90;;;;;;5088761;28;19924;-64
2023/02/18 04:43:05;;;;;;;;;;;10.30;99.90;;;;;;5092353;28;19924;-64
2023/02/18 04:45:32;;;;;;;;;;;10.30;99.90;;;;;;5086536;28;19924;-64
2023/02/18 04:47:58;;;;;;;;;;;10.20;99.90;;;;;;5073705;28;20456;-64
2023/02/18 04:50:26;;;;;;;;;;;10.10;99.90;;;;;;5076224;28;19928;-64
2023/02/18 04:52:53;;;;;;;;;;;10.20;99.90;;;;;;5085928;28;19975;-64
2023/02/18 04:55:19;;;;;;;;;;;10.10;99.90;;;;;;5084009;28;19970;-64
2023/02/18 04:57:46;;;;;;;;;;;10.10;99.90;;;;;;5086396;28;19925;-64
2023/02/18 05:00:14;;;;;;;;;;;10.20;99.90;;;;;;5074086;28;19990;-64
2023/02/18 05:02:40;;;;;;;;;;;10.10;99.90;;;;;;5084550;28;20371;-64
2023/02/18 05:05:07;;;;;;;;;;;10.10;99.90;;;;;;5082492;28;19978;-64
2023/02/18 05:07:35;;;;;;;;;;;10.10;99.90;;;;;;5081946;28;19931;-64
2023/02/18 05:10:02;;;;;;;;;;;10.10;99.90;;;;;;5082421;28;19928;-64
2023/02/18 05:12:28;;;;;;;;;;;10.10;99.90;;;;;;5090009;28;20260;-64
2023/02/18 05:14:55;;;;;;;;;;;10.10;99.90;;;;;;5089296;28;19924;-64
2023/02/18 05:17:21;;;;;;;;;;;10.10;99.90;;;;;;5080750;28;20065;-64
2023/02/18 05:19:48;;;;;;;;;;;10.10;99.90;;;;;;5086067;28;19925;-64
2023/02/18 05:22:14;;;;;;;;;;;10.00;99.90;;;;;;5082307;28;19928;-64
2023/02/18 05:24:42;;;;;;;;;;;10.10;99.90;;;;;;5083031;28;19977;-64
2023/02/18 05:27:09;;;;;;;;;;;10.00;99.90;;;;;;5084622;28;20334;-64
2023/02/18 05:29:35;;;;;;;;;;;10.10;99.90;;;;;;5083520;28;19954;-64
2023/02/18 05:32:02;;;;;;;;;;;10.10;99.90;;;;;;5084607;28;19923;-64
2023/02/18 05:34:28;;;;;;;;;;;10.00;99.90;;;;;;5084787;28;19977;-64
2023/02/18 05:36:55;;;;;;;;;;;10.10;99.90;;;;;;5079245;28;20287;-64
2023/02/18 05:39:21;;;;;;;;;;;10.10;99.90;;;;;;5084811;28;19973;-64
2023/02/18 05:41:49;;;;;;;;;;;10.00;99.90;;;;;;5085918;28;19970;-64
2023/02/18 05:44:32;;;;;;;;;;;10.00;99.90;;;;;;5083745;28;19931;-64
2023/02/18 05:46:58;;;;;;;;;;;10.00;99.90;;;;;;5084028;28;19928;-64
2023/02/18 05:49:25;;;;;;;;;;;10.00;99.90;;;;;;5085997;28;19978;-64
2023/02/18 05:51:52;;;;;;;;;;;9.90;99.90;;;;;;5085471;28;19924;-64
2023/02/18 05:54:18;;;;;;;;;;;10.00;99.90;;;;;;5083191;28;20342;-64
2023/02/18 05:56:45;;;;;;;;;;;10.00;99.90;;;;;;5081774;28;20321;-64
2023/02/18 05:59:13;;;;;;;;;;;10.00;99.90;;;;;;5082368;28;20281;-64
2023/02/18 06:01:39;;;;;;;;;;;9.90;99.90;;;;;;5084809;28;19928;-64
2023/02/18 06:04:06;;;;;;;;;;;10.00;99.90;;;;;;5073497;28;20333;-64
2023/02/18 06:06:32;;;;;;;;;;;10.00;99.90;;;;;;5091483;28;19928;-64
2023/02/18 06:08:59;;;;;;;;;;;10.00;99.90;;;;;;5080923;28;19955;-64
2023/02/18 06:11:25;;;;;;;;;;;9.90;99.90;;;;;;5088116;28;19970;-64
2023/02/18 06:13:52;;;;;;;;;;;10.00;99.90;;;;;;5084728;28;19955;-64
2023/02/18 06:16:20;;;;;;;;;;;9.90;99.90;;;;;;5083703;28;19985;-64
2023/02/18 06:18:46;;;;;;;;;;;10.00;99.90;;;;;;5082877;28;19928;-64
2023/02/18 06:21:13;;;;;;;;;;;10.00;99.90;;;;;;5084400;28;19932;-64
2023/02/18 06:23:39;;;;;;;;;;;10.00;99.90;;;;;;5078083;28;19955;-64
2023/02/18 06:26:06;;;;;;;;;;;9.90;99.90;;;;;;5084672;28;19927;-64
2023/02/18 06:28:32;;;;;;;;;;;9.90;99.90;;;;;;5078734;28;19994;-64
2023/02/18 06:30:59;;;;;;;;;;;9.90;99.90;;;;;;5084955;28;19945;-64
2023/02/18 06:33:27;;;;;;;;;;;9.90;99.90;;;;;;5080830;28;20375;-64
2023/02/18 06:35:54;;;;;;;;;;;9.90;99.90;;;;;;5085366;28;19924;-64
2023/02/18 06:38:21;;;;;;;;;;;9.90;99.90;;;;;;5082997;28;19928;-64
2023/02/18 06:40:47;;;;;;;;;;;9.90;99.90;;;;;;5086919;28;19954;-64
2023/02/18 06:43:14;;;;;;;;;;;9.80;99.90;;;;;;5086798;28;19928;-64
2023/02/18 06:45:40;;;;;;;;;;;9.90;99.90;;;;;;5083827;28;19932;-64
2023/02/18 06:48:07;;;;;;;;;;;9.90;99.90;;;;;;5079789;28;19931;-64
2023/02/18 06:50:35;;;;;;;;;;;9.90;99.90;;;;;;5083988;28;20005;-64
2023/02/18 06:53:01;;;;;;;;;;;9.90;99.90;;;;;;5080804;28;19982;-64
2023/02/18 06:55:28;;;;;;;;;;;9.90;99.90;;;;;;5084945;28;19924;-65
2023/02/18 06:57:54;;;;;;;;;;;9.90;99.90;;;;;;5080323;28;19928;-65
2023/02/18 07:00:21;;;;;;;;;;;9.90;99.90;;;;;;5083150;28;19974;-65
2023/02/18 07:02:48;;;;;;;;;;;10.00;99.90;;;;;;5083204;28;20074;-66
2023/02/18 07:05:14;;;;;;;;;;;9.90;99.90;;;;;;5083432;28;19928;-65
2023/02/18 07:07:42;;;;;;;;;;;9.90;99.90;;;;;;5081665;28;20383;-66
2023/02/18 07:10:09;;;;;;;;;;;9.90;99.90;;;;;;5084093;28;19978;-64
2023/02/18 07:12:36;;;;;;;;;;;9.90;99.90;;;;;;5088042;28;20345;-65
2023/02/18 07:15:02;;;;;;;;;;;9.80;99.90;;;;;;5084280;28;19928;-66
2023/02/18 07:17:29;;;;;;;;;;;9.80;99.90;;;;;;5080428;28;20433;-66
2023/02/18 07:19:55;;;;;;;;;;;9.80;99.90;;;;;;5082986;28;19985;-66
2023/02/18 07:22:22;;;;;;;;;;;9.80;99.90;;;;;;5084172;28;19970;-64
2023/02/18 07:24:52;;;;;;;;;;;9.80;99.90;;;;;;5080911;28;19928;-64
2023/02/18 07:27:19;;;;;;;;;;;9.80;99.90;;;;;;5078771;28;19931;-64
2023/02/18 07:29:45;;;;;;;;;;;9.80;99.90;;;;;;5083077;28;20332;-64
2023/02/18 07:32:12;;;;;;;;;;;9.80;99.90;;;;;;5082378;28;19924;-64
2023/02/18 07:34:38;;;;;;;;;;;9.80;99.90;;;;;;5083367;28;19924;-64
2023/02/18 07:37:08;;;;;;;;;;;9.80;99.90;;;;;;5077073;28;20391;-65
2023/02/18 07:39:34;;;;;;;;;;;9.80;99.90;;;;;;5083326;28;19939;-65
2023/02/18 07:42:03;;;;;;;;;;;9.80;99.90;;;;;;5088626;28;19957;-66
2023/02/18 07:44:29;;;;;;;;;;;9.80;99.90;;;;;;5083531;28;20354;-66
2023/02/18 07:46:56;;;;;;;;;;;9.80;99.90;;;;;;5082307;28;19924;-65
2023/02/18 07:49:23;;;;;;;;;;;9.80;99.90;;;;;;5085549;28;19924;-63
2023/02/18 07:51:50;;;;;;;;;;;9.80;99.90;;;;;;5083391;28;19924;-65
2023/02/18 07:54:17;;;;;;;;;;;9.80;99.90;;;;;;5089170;28;19928;-64
2023/02/18 07:56:43;;;;;;;;;;;9.80;99.90;;;;;;5086635;28;19925;-67
2023/02/18 07:59:12;;;;;;;;;;;9.80;99.90;;;;;;5086283;28;20405;-64
2023/02/18 08:01:38;;;;;;;;;;;9.80;99.90;;;;;;5086405;28;19932;-64
2023/02/18 08:04:05;;;;;;;;;;;9.90;99.90;;;;;;5086459;28;19969;-65
2023/02/18 08:06:33;;;;;;;;;;;9.90;99.90;;;;;;5086001;28;19924;-64
2023/02/18 08:09:00;;;;;;;;;;;9.90;99.90;;;;;;5086059;28;19966;-64
2023/02/18 08:11:26;;;;;;;;;;;9.90;99.90;;;;;;5084545;28;19977;-65
2023/02/18 08:13:53;;;;;;;;;;;9.90;99.90;;;;;;5087161;28;19936;-65
2023/02/18 08:16:21;;;;;;;;;;;9.90;99.90;;;;;;5089605;28;19924;-64
2023/02/18 08:18:48;;;;;;;;;;;9.80;99.90;;;;;;5084624;28;20298;-64
2023/02/18 08:21:15;;;;;;;;;;;9.80;99.90;;;;;;5087031;28;19932;-64
2023/02/18 08:23:42;;;;;;;;;;;9.80;99.90;;;;;;5083826;28;19924;-64
2023/02/18 08:26:09;;;;;;;;;;;9.70;99.90;;;;;;5083906;28;19924;-64
2023/02/18 08:28:35;;;;;;;;;;;9.70;99.90;;;;;;5083156;28;19924;-64
2023/02/18 08:31:02;;;;;;;;;;;9.70;99.90;;;;;;5086979;28;19928;-63
2023/02/18 08:33:30;;;;;;;;;;;9.70;99.90;;;;;;5083312;28;19970;-64
2023/02/18 08:35:56;;;;;;;;;;;9.80;99.90;;;;;;5086745;28;19932;-64
2023/02/18 08:38:23;;;;;;;;;;;9.90;99.90;;;;;;5083607;28;19935;-64
2023/02/18 08:40:50;;;;;;;;;;;10.00;99.90;;;;;;5087656;28;19977;-64
2023/02/18 08:43:17;;;;;;;;;;;10.00;99.90;;;;;;5089633;28;19990;-64
2023/02/18 08:45:45;;;;;;;;;;;10.00;99.90;;;;;;5085522;28;21274;-64
2023/02/18 08:48:13;;;;;;;;;;;9.80;99.90;;;;;;5080446;28;19966;-64
2023/02/18 08:50:41;;;;;;;;;;;9.70;99.90;;;;;;5085510;28;20446;-64
2023/02/18 08:53:07;;;;;;;;;;;9.50;99.90;;;;;;5079998;28;19932;-65
2023/02/18 08:55:36;;;;;;;;;;;9.50;99.90;;;;;;5100958;28;19928;-65
2023/02/18 08:58:04;;;;;;;;;;;9.40;99.90;;;;;;5094136;28;19924;-65
2023/02/18 09:00:30;;;;;;;;;;;9.50;99.90;;;;;;5091046;28;20364;-64
2023/02/18 09:02:57;;;;;;;;;;;9.40;99.90;;;;;;5082107;28;19987;-65
2023/02/18 09:05:24;;;;;;;;;;;9.30;99.90;;;;;;5093688;28;19970;-64
2023/02/18 09:07:51;;;;;;;;;;;9.20;99.90;;;;;;5082514;28;19925;-65
2023/02/18 09:10:18;;;;;;;;;;;9.20;99.90;;;;;;5085717;28;19924;-64
2023/02/18 09:12:45;;;;;;;;;;;9.20;99.90;;;;;;5086386;28;19970;-68
2023/02/18 09:15:11;;;;;;;;;;;9.30;99.90;;;;;;5082426;28;19970;-67
2023/02/18 09:17:38;;;;;;;;;;;9.30;99.90;;;;;;5082565;28;19923;-66
2023/02/18 09:20:05;;;;;;;;;;;9.30;99.90;;;;;;5084356;28;19924;-69
2023/02/18 09:22:31;;;;;;;;;;;9.50;99.90;;;;;;5084284;28;20436;-69
2023/02/18 09:24:59;;;;;;;;;;;9.40;99.90;;;;;;5080386;28;19924;-69
2023/02/18 09:27:26;;;;;;;;;;;9.60;99.90;;;;;;5086464;28;19932;-63
2023/02/18 09:29:53;;;;;;;;;;;9.40;99.90;;;;;;5092527;28;20064;-64
2023/02/18 09:32:19;;;;;;;;;;;9.40;99.90;;;;;;5082034;28;19924;-65
2023/02/18 09:34:46;;;;;;;;;;;9.40;99.90;;;;;;5084537;28;19931;-64
2023/02/18 09:37:14;;;;;;;;;;;9.30;99.90;;;;;;5085940;28;19928;-62
2023/02/18 09:39:40;;;;;;;;;;;9.40;99.90;;;;;;5083497;28;19931;-65
2023/02/18 09:42:12;;;;;;;;;;;9.40;99.90;;;;;;5087207;28;19977;-63
2023/02/18 09:44:40;;;;;;;;;;;9.50;99.90;;;;;;5082986;28;19925;-63
2023/02/18 09:47:11;;;;;;;;;;;9.40;99.90;;;;;;5086990;28;19925;-65
2023/02/18 09:49:39;;;;;;;;;;;9.40;99.90;;;;;;5081368;28;19932;-64
2023/02/18 09:52:11;;;;;;;;;;;9.40;99.90;;;;;;5083336;28;19924;-65
2023/02/18 09:54:37;;;;;;;;;;;9.40;99.90;;;;;;5083715;28;19931;-65
2023/02/18 09:57:06;;;;;;;;;;;9.40;99.90;;;;;;5079386;28;19931;-63
2023/02/18 09:59:34;;;;;;;;;;;9.40;99.90;;;;;;5082947;28;19924;-64
2023/02/18 10:02:01;;;;;;;;;;;9.40;99.90;;;;;;5077976;28;19924;-64
2023/02/18 10:04:30;;;;;;;;;;;9.30;99.90;;;;;;5078666;28;19936;-64
2023/02/18 10:06:58;;;;;;;;;;;9.40;99.90;;;;;;5080437;28;19931;-65
2023/02/18 10:09:28;;;;;;;;;;;9.50;99.90;;;;;;5078695;28;19925;-65
2023/02/18 10:11:56;;;;;;;;;;;9.40;99.90;;;;;;5087721;28;19924;-64
2023/02/18 10:14:22;;;;;;;;;;;9.40;99.90;;;;;;5088226;28;20467;-66
2023/02/18 10:16:52;;;;;;;;;;;9.40;99.90;;;;;;5084324;28;19953;-66
2023/02/18 10:19:21;;;;;;;;;;;9.40;99.90;;;;;;5092823;28;20290;-66
2023/02/18 10:21:48;;;;;;;;;;;9.40;99.90;;;;;;5086731;28;19924;-66
2023/02/18 10:24:19;;;;;;;;;;;9.40;99.90;;;;;;5079504;28;19924;-64
2023/02/18 10:26:46;;;;;;;;;;;9.50;99.90;;;;;;5087046;28;19924;-65
2023/02/18 10:29:14;;;;;;;;;;;9.40;99.90;;;;;;5085107;28;20061;-66
2023/02/18 10:31:42;;;;;;;;;;;9.40;99.90;;;;;;5081879;28;20025;-64
2023/02/18 10:34:14;;;;;;;;;;;9.40;99.90;;;;;;5083436;28;19924;-65
2023/02/18 10:36:44;;;;;;;;;;;9.40;99.90;;;;;;5087052;28;19953;-63
2023/02/18 10:39:20;;;;;;;;;;;9.40;99.90;;;;;;5080065;28;19925;-64
2023/02/18 10:41:50;;;;;;;;;;;9.30;99.90;;;;;;5089779;28;19924;-65
2023/02/18 10:44:20;;;;;;;;;;;9.40;99.90;;;;;;5083949;28;19986;-64
2023/02/18 10:46:50;;;;;;;;;;;9.50;99.90;;;;;;5079795;28;20296;-64
2023/02/18 10:49:30;;;;;;;;;;;9.40;99.90;;;;;;5078695;28;20333;-63
2023/02/18 10:51:59;;;;;;;;;;;9.40;99.90;;;;;;5084042;28;20276;-63
2023/02/18 10:54:26;;;;;;;;;;;9.50;99.90;;;;;;5082818;28;20541;-64
2023/02/18 10:56:58;;;;;;;;;;;9.50;99.90;;;;;;5080027;28;19970;-64
2023/02/18 10:59:26;;;;;;;;;;;9.50;99.90;;;;;;5083230;28;19939;-64
2023/02/18 11:01:54;;;;;;;;;;;9.40;99.90;;;;;;5083054;28;19924;-65
2023/02/18 11:04:22;;;;;;;;;;;9.40;99.90;;;;;;5084421;28;19954;-66
2023/02/18 11:06:51;;;;;;;;;;;9.40;99.90;;;;;;5077673;28;19924;-67
2023/02/18 11:09:27;;;;;;;;;;;9.30;99.90;;;;;;5071867;28;19931;-66
2023/02/18 11:11:59;;;;;;;;;;;9.20;99.90;;;;;;5082407;28;19953;-66
2023/02/18 11:14:36;;;;;;;;;;;9.10;99.90;;;;;;5082497;28;19928;-63
2023/02/18 11:17:09;;;;;;;;;;;9.10;99.90;;;;;;5075168;28;19974;-66
2023/02/18 11:19:37;;;;;;;;;;;9.10;99.90;;;;;;5071269;28;19974;-65
2023/02/18 11:22:14;;;;;;;;;;;9.20;99.90;;;;;;5079089;28;19925;-65
2023/02/18 11:24:46;;;;;;;;;;;9.10;99.90;;;;;;5083135;28;19924;-69
2023/02/18 11:27:17;;;;;;;;;;;9.20;99.90;;;;;;5084949;28;19928;-65
2023/02/18 11:29:43;;;;;;;;;;;9.20;99.90;;;;;;5087927;28;19953;-67
2023/02/18 11:32:11;;;;;;;;;;;9.20;99.90;;;;;;5084605;28;19932;-68
2023/02/18 11:34:41;;;;;;;;;;;9.30;99.90;;;;;;5084148;28;20326;-67
2023/02/18 11:37:10;;;;;;;;;;;9.30;99.90;;;;;;5088754;28;19925;-68
2023/02/18 11:39:41;;;;;;;;;;;9.30;99.90;;;;;;5087848;28;19928;-68
2023/02/18 11:42:08;;;;;;;;;;;9.30;99.90;;;;;;5094103;28;19928;-66
2023/02/18 11:44:35;;;;;;;;;;;9.20;99.90;;;;;;5088939;28;19969;-66
2023/02/18 11:47:04;;;;;;;;;;;9.30;99.90;;;;;;5085203;28;19954;-68
2023/02/18 11:49:32;;;;;;;;;;;9.30;99.90;;;;;;5084892;28;19932;-68
2023/02/18 11:52:04;;;;;;;;;;;9.40;99.90;;;;;;5090670;28;19977;-68
2023/02/18 11:54:34;;;;;;;;;;;9.40;99.90;;;;;;5084661;28;19924;-68
2023/02/18 11:57:01;;;;;;;;;;;9.40;99.90;;;;;;5087933;28;20378;-68
2023/02/18 11:59:30;;;;;;;;;;;9.40;99.90;;;;;;5084894;28;19986;-68
2023/02/18 12:01:59;;;;;;;;;;;9.30;99.90;;;;;;5089546;28;19961;-67
2023/02/18 12:04:28;;;;;;;;;;;9.30;99.90;;;;;;5100301;28;19928;-68
2023/02/18 12:07:00;;;;;;;;;;;9.30;99.90;;;;;;5104497;28;19931;-68
2023/02/18 12:09:29;;;;;;;;;;;9.30;99.90;;;;;;5078081;28;19931;-67
2023/02/18 12:11:59;;;;;;;;;;;9.30;99.90;;;;;;5089459;28;19997;-66
2023/02/18 12:14:25;;;;;;;;;;;9.40;99.90;;;;;;5085102;28;19924;-68
2023/02/18 12:17:07;;;;;;;;;;;9.40;99.90;;;;;;5086382;28;19924;-65
2023/02/18 12:19:42;;;;;;;;;;;9.40;99.90;;;;;;5076771;28;20045;-64
2023/02/18 12:22:12;;;;;;;;;;;9.60;99.90;;;;;;5074295;28;19924;-64
2023/02/18 12:24:45;;;;;;;;;;;9.50;99.90;;;;;;5082296;28;19928;-65
2023/02/18 12:27:17;;;;;;;;;;;9.40;99.90;;;;;;5080354;28;19928;-64
2023/02/18 12:30:01;;;;;;;;;;;9.50;99.90;;;;;;5075523;28;19929;-65
2023/02/18 12:32:34;;;;;;;;;;;9.50;99.90;;;;;;5081790;28;19933;-65
2023/02/18 12:35:07;;;;;;;;;;;9.40;99.90;;;;;;5085006;28;19932;-64
2023/02/18 12:37:44;;;;;;;;;;;9.40;99.90;;;;;;5085507;28;19928;-65
2023/02/18 12:40:21;;;;;;;;;;;9.50;99.90;;;;;;5084040;28;19929;-67
2023/02/18 12:42:53;;;;;;;;;;;9.60;99.90;;;;;;5088311;28;19925;-66
2023/02/18 12:45:38;;;;;;;;;;;9.60;99.90;;;;;;5085596;28;19924;-67
2023/02/18 12:48:31;;;;;;;;;;;9.60;99.90;;;;;;5079943;28;20441;-67
2023/02/18 12:51:05;;;;;;;;;;;9.70;99.90;;;;;;5045491;28;20585;-67
2023/02/18 12:53:43;;;;;;;;;;;9.80;99.90;;;;;;5088745;28;19931;-68
2023/02/18 12:56:28;;;;;;;;;;;9.70;99.90;;;;;;5080807;28;20577;-67
2023/02/18 12:58:57;;;;;;;;;;;9.60;99.90;;;;;;5086409;28;20636;-67
2023/02/18 13:01:45;;;;;;;;;;;9.70;99.90;;;;;;5089084;28;19924;-67
2023/02/18 13:04:24;;;;;;;;;;;9.70;99.90;;;;;;5069582;28;19979;-66
2023/02/18 13:07:10;;;;;;;;;;;9.70;99.90;;;;;;5075649;28;20470;-67
2023/02/18 13:09:42;;;;;;;;;;;9.70;99.90;;;;;;5074983;28;19934;-66
2023/02/18 13:12:13;;;;;;;;;;;9.70;99.90;;;;;;5088499;28;19943;-67
2023/02/18 13:14:44;;;;;;;;;;;9.80;99.90;;;;;;5086117;28;19925;-68
2023/02/18 13:17:11;;;;;;;;;;;9.80;99.90;;;;;;5081268;28;19974;-68
2023/02/18 13:19:42;;;;;;;;;;;9.80;99.90;;;;;;5082242;28;19943;-65
2023/02/18 13:22:09;;;;;;;;;;;9.80;99.90;;;;;;5086182;28;19924;-64
2023/02/18 13:24:37;;;;;;;;;;;9.70;99.90;;;;;;5082075;28;19928;-64
2023/02/18 13:27:08;;;;;;;;;;;9.70;99.90;;;;;;5082959;28;19931;-63
2023/02/18 13:29:39;;;;;;;;;;;9.70;99.90;;;;;;5082385;28;19990;-63
2023/02/18 13:32:13;;;;;;;;;;;9.70;99.90;;;;;;5085246;28;20370;-65
2023/02/18 13:34:46;;;;;;;;;;;9.70;99.90;;;;;;5072731;28;19932;-66
2023/02/18 13:37:17;;;;;;;;;;;9.70;99.90;;;;;;5079925;28;19929;-65
2023/02/18 13:39:47;;;;;;;;;;;9.70;99.90;;;;;;5084083;28;19970;-64
2023/02/18 13:42:40;;;;;;;;;;;9.70;99.90;;;;;;5088205;28;19936;-64
2023/02/18 13:45:22;;;;;;;;;;;9.70;99.90;;;;;;5048398;28;19928;-64
2023/02/18 13:47:50;;;;;;;;;;;9.80;99.90;;;;;;5082142;28;19932;-64
2023/02/18 13:50:25;;;;;;;;;;;9.70;99.90;;;;;;5080466;28;19928;-65
2023/02/18 13:52:57;;;;;;;;;;;9.70;99.90;;;;;;5083222;28;19924;-63
2023/02/18 13:55:27;;;;;;;;;;;9.70;99.90;;;;;;5083302;28;19924;-64
2023/02/18 13:57:55;;;;;;;;;;;9.70;99.90;;;;;;5086821;28;19924;-64
2023/02/18 14:00:22;;;;;;;;;;;9.70;99.90;;;;;;5089816;28;19928;-63
2023/02/18 14:02:57;;;;;;;;;;;9.80;99.90;;;;;;5079742;28;19924;-63
2023/02/18 14:05:25;;;;;;;;;;;9.80;99.90;;;;;;5082924;28;19925;-64
2023/02/18 14:07:52;;;;;;;;;;;9.90;99.90;;;;;;5079522;28;20037;-63
2023/02/18 14:10:26;;;;;;;;;;;9.90;99.90;;;;;;5085106;28;20007;-64
2023/02/18 14:13:12;;;;;;;;;;;9.80;99.90;;;;;;5088881;28;19951;-66
2023/02/18 14:15:48;;;;;;;;;;;9.80;99.90;;;;;;5086454;28;19947;-66
2023/02/18 14:18:24;;;;;;;;;;;9.90;99.90;;;;;;5082544;28;20329;-66
2023/02/18 14:20:51;;;;;;;;;;;9.90;99.90;;;;;;5079304;28;19924;-65
2023/02/18 14:23:36;;;;;;;;;;;9.80;99.90;;;;;;5083198;28;19924;-64
2023/02/18 14:26:05;;;;;;;;;;;9.80;99.90;;;;;;5084260;28;19925;-65
2023/02/18 14:28:38;;;;;;;;;;;9.80;99.90;;;;;;5081100;28;19927;-65
2023/02/18 14:31:16;;;;;;;;;;;9.90;99.90;;;;;;5083667;28;20566;-64
2023/02/18 14:33:46;;;;;;;;;;;9.90;99.90;;;;;;5080501;28;20531;-66
2023/02/18 14:36:18;;;;;;;;;;;9.80;99.90;;;;;;5074926;28;19925;-67